Time;durP1;ratioP1;P1;durP2;ratioP2;P2;SDS_P1;SDS_P2;PMS_P1;PMS_P2;Temp;Humidity;BMP_temperature;BMP_pressure;BME280_temperature;BME280_humidity;BME280_pressure;Samples;Min_cycle;Max_cycle;Signal;HPM_P1;HPM_P2
2021/06/06 00:01:05;;;;;;;6.03;4.22;;;;;;;22.54;53.72;102329.75;5032304;28;20527;-58
2021/06/06 00:03:35;;;;;;;5.93;4.32;;;;;;;22.53;53.76;102328.91;5032784;28;20133;-58
2021/06/06 00:06:06;;;;;;;6.85;4.20;;;;;;;22.52;53.66;102324.56;5032638;28;20025;-57
2021/06/06 00:08:32;;;;;;;7.18;4.85;;;;;;;22.52;53.38;102326.38;5031446;28;20087;-58
2021/06/06 00:11:03;;;;;;;6.63;4.07;;;;;;;22.51;53.55;102325.53;5031721;28;20064;-58
2021/06/06 00:13:29;;;;;;;6.18;3.92;;;;;;;22.51;53.58;102322.03;5032432;28;20021;-58
2021/06/06 00:15:54;;;;;;;5.95;4.03;;;;;;;22.48;53.61;102314.28;5031939;28;20044;-57
2021/06/06 00:18:21;;;;;;;5.90;4.22;;;;;;;22.44;53.33;102309.22;5031943;28;20115;-57
2021/06/06 00:20:46;;;;;;;6.32;4.28;;;;;;;22.49;53.54;102322.13;5031676;28;20021;-58
2021/06/06 00:23:14;;;;;;;6.53;4.37;;;;;;;22.49;53.52;102316.00;5031686;28;20051;-58
2021/06/06 00:25:40;;;;;;;6.22;4.63;;;;;;;22.48;53.50;102320.47;5032040;28;20374;-57
2021/06/06 00:28:08;;;;;;;6.40;4.40;;;;;;;22.47;53.36;102321.41;5031048;28;20028;-57
2021/06/06 00:30:35;;;;;;;6.15;4.72;;;;;;;22.46;53.34;102319.72;5032103;28;20384;-57
2021/06/06 00:33:00;;;;;;;6.00;4.10;;;;;;;22.45;53.33;102310.06;5032235;28;20072;-58
2021/06/06 00:35:26;;;;;;;6.82;4.60;;;;;;;22.45;53.41;102310.91;5030905;28;20021;-58
2021/06/06 00:37:51;;;;;;;5.53;3.85;;;;;;;22.42;53.54;102313.81;5032089;28;20370;-57
2021/06/06 00:40:24;;;;;;;6.10;4.00;;;;;;;22.45;53.29;102316.22;5031599;28;20531;-58
2021/06/06 00:42:50;;;;;;;5.43;3.97;;;;;;;22.45;53.24;102320.69;5031322;28;20025;-57
2021/06/06 00:45:23;;;;;;;6.18;4.10;;;;;;;22.43;53.40;102315.50;5032218;28;20366;-57
2021/06/06 00:47:49;;;;;;;5.40;3.85;;;;;;;22.43;53.23;102312.84;5032544;28;20476;-57
2021/06/06 00:50:30;;;;;;;6.22;4.38;;;;;;;22.43;53.46;102322.59;5031098;28;20030;-57
2021/06/06 00:52:59;;;;;;;6.85;4.70;;;;;;;22.42;53.39;102319.13;5031741;28;20543;-56
2021/06/06 00:55:25;;;;;;;6.65;4.22;;;;;;;22.41;53.34;102314.78;5031600;28;20033;-56
2021/06/06 00:57:50;;;;;;;6.10;4.20;;;;;;;22.42;53.28;102315.63;5031244;28;20457;-56
2021/06/06 01:00:43;;;;;;;5.78;4.18;;;;;;;22.39;53.10;102306.06;5031390;28;20048;-57
2021/06/06 01:03:09;;;;;;;6.40;3.85;;;;;;;22.40;52.95;102310.44;5030574;28;20021;-58
2021/06/06 01:05:40;;;;;;;6.10;3.90;;;;;;;22.40;53.19;102310.44;5031745;28;20109;-57
2021/06/06 01:08:09;;;;;;;5.80;4.05;;;;;;;22.39;53.15;102305.22;5031241;28;20144;-57
2021/06/06 01:10:35;;;;;;;5.78;3.90;;;;;;;22.40;53.26;102318.41;5030937;28;20342;-57
2021/06/06 01:13:13;;;;;;;6.43;3.92;;;;;;;22.40;53.06;102317.56;5031447;28;20041;-57
2021/06/06 01:15:39;;;;;;;5.88;4.25;;;;;;;22.33;53.14;102306.53;5031238;28;20469;-57
2021/06/06 01:18:21;;;;;;;5.97;4.22;;;;;;;22.38;53.13;102315.03;5030548;28;20108;-57
2021/06/06 01:21:06;;;;;;;5.93;4.32;;;;;;;22.38;53.19;102316.81;5030141;28;20042;-57
2021/06/06 01:23:49;;;;;;;6.13;4.07;;;;;;;22.39;53.00;102315.84;5035171;28;20075;-57
2021/06/06 01:26:36;;;;;;;6.60;4.35;;;;;;;22.37;53.00;102309.81;5034404;28;20041;-58
2021/06/06 01:29:35;;;;;;;5.30;3.92;;;;;;;22.37;53.01;102310.66;5034812;28;20053;-57
2021/06/06 01:32:08;;;;;;;5.10;3.60;;;;;;;22.36;53.07;102306.31;5034428;28;20034;-57
2021/06/06 01:34:35;;;;;;;6.70;4.22;;;;;;;22.33;53.06;102305.69;5034924;28;20118;-57
2021/06/06 01:37:10;;;;;;;6.40;4.20;;;;;;;22.35;52.98;102301.09;5034872;28;20021;-57
2021/06/06 01:39:40;;;;;;;6.03;4.28;;;;;;;22.30;53.09;102301.44;5034338;28;20030;-57
2021/06/06 01:42:29;;;;;;;6.30;3.90;;;;;;;22.33;53.01;102300.38;5034533;28;20052;-57
2021/06/06 01:45:04;;;;;;;6.20;3.88;;;;;;;22.34;52.92;102305.59;5034736;28;20127;-58
2021/06/06 01:47:31;;;;;;;5.72;3.63;;;;;;;22.32;52.93;102307.53;5035168;28;20021;-58
2021/06/06 01:50:05;;;;;;;5.88;4.20;;;;;;;22.33;53.03;102303.88;5034923;28;20053;-58
2021/06/06 01:52:34;;;;;;;5.85;4.20;;;;;;;22.34;52.89;102305.59;5034767;28;20060;-58
2021/06/06 01:55:08;;;;;;;5.65;3.85;;;;;;;22.32;52.92;102294.25;5035061;28;20056;-58
2021/06/06 01:57:33;;;;;;;;;;;;;;;22.33;52.89;102300.38;5035825;28;20045;-58
2021/06/06 02:00:00;;;;;;;5.70;3.90;;;;;;;22.31;52.95;102303.16;5034710;28;20384;-56
2021/06/06 02:02:26;;;;;;;6.03;4.32;;;;;;;22.27;52.83;102293.69;5035225;28;20021;-57
2021/06/06 02:04:53;;;;;;;5.78;3.88;;;;;;;22.29;53.14;102297.09;5034570;28;20040;-57
2021/06/06 02:07:27;;;;;;;5.90;4.00;;;;;;;22.29;52.89;102305.06;5033682;28;20116;-57
2021/06/06 02:09:58;;;;;;;5.32;3.75;;;;;;;22.31;52.80;102304.97;5034198;28;20121;-57
2021/06/06 02:12:27;;;;;;;6.53;4.15;;;;;;;22.29;52.92;102305.06;5033907;28;20546;-56
2021/06/06 02:14:53;;;;;;;6.45;4.18;;;;;;;22.30;52.89;102303.28;5033425;28;20492;-58
2021/06/06 02:17:34;;;;;;;6.82;4.00;;;;;;;22.29;52.96;102305.06;5033994;28;20025;-57
2021/06/06 02:20:05;;;;;;;5.88;3.85;;;;;;;22.28;52.90;102301.53;5034256;28;20032;-57
2021/06/06 02:22:32;;;;;;;5.53;3.92;;;;;;;22.28;52.90;102306.00;5033359;28;20141;-58
2021/06/06 02:24:59;;;;;;;5.75;3.72;;;;;;;22.28;52.94;102308.66;5034468;28;20349;-58
2021/06/06 02:27:35;;;;;;;6.22;3.85;;;;;;;22.20;52.85;102295.97;5033112;28;20021;-58
2021/06/06 02:30:13;;;;;;;5.80;4.10;;;;;;;22.27;52.91;102305.19;5033926;28;20370;-58
2021/06/06 02:33:04;;;;;;;5.80;4.10;;;;;;;22.27;52.96;102304.31;5033554;28;20048;-58
2021/06/06 02:35:32;;;;;;;6.38;3.85;;;;;;;22.26;52.94;102298.16;5033120;28;20469;-58
2021/06/06 02:38:24;;;;;;;6.90;4.72;;;;;;;22.26;52.87;102303.47;5033799;28;20029;-58
2021/06/06 02:41:00;;;;;;;5.70;3.95;;;;;;;22.26;52.75;102306.13;5033822;28;20021;-58
2021/06/06 02:43:36;;;;;;;6.03;4.00;;;;;;;22.26;52.84;102299.97;5032600;28;20030;-58
2021/06/06 02:46:04;;;;;;;6.55;4.22;;;;;;;22.25;52.89;102293.81;5033242;28;20022;-57
2021/06/06 02:48:34;;;;;;;6.00;4.15;;;;;;;22.25;52.77;102298.28;5032750;28;20422;-57
2021/06/06 02:51:05;;;;;;;5.22;3.78;;;;;;;22.24;52.73;102294.78;5033661;28;20123;-57
2021/06/06 02:53:39;;;;;;;6.90;4.40;;;;;;;22.20;52.62;102280.03;5033550;28;20033;-58
2021/06/06 02:56:11;;;;;;;;;;;;;;;22.24;52.69;102288.66;5033096;28;20018;-57
2021/06/06 02:59:03;;;;;;;7.03;4.45;;;;;;;22.23;52.85;102294.91;5033392;28;20467;-57
2021/06/06 03:01:35;;;;;;;6.32;4.40;;;;;;;22.22;52.86;102302.03;5033265;28;20056;-57
2021/06/06 03:04:05;;;;;;;7.30;4.65;;;;;;;22.19;52.83;102298.75;5032642;28;20025;-58
2021/06/06 03:06:36;;;;;;;6.30;4.25;;;;;;;22.23;52.74;102302.88;5033580;28;20182;-58
2021/06/06 03:09:08;;;;;;;6.78;4.38;;;;;;;22.22;52.84;102295.84;5032980;28;20045;-57
2021/06/06 03:11:45;;;;;;;6.50;4.47;;;;;;;22.21;52.63;102303.00;5032498;28;20541;-58
2021/06/06 03:14:20;;;;;;;6.60;4.55;;;;;;;22.21;52.66;102297.69;5032788;28;20163;-58
2021/06/06 03:16:53;;;;;;;7.03;4.88;;;;;;;22.21;52.59;102302.16;5032412;28;20041;-57
2021/06/06 03:19:22;;;;;;;6.60;4.82;;;;;;;22.21;52.55;102308.28;5032955;28;20043;-58
2021/06/06 03:21:50;;;;;;;5.85;4.32;;;;;;;22.20;52.68;102303.94;5033175;28;20156;-57
2021/06/06 03:24:36;;;;;;;6.18;4.70;;;;;;;22.19;52.61;102298.75;5031943;28;20029;-58
2021/06/06 03:27:04;;;;;;;6.93;4.72;;;;;;;22.18;52.38;102295.25;5032542;28;20044;-58
2021/06/06 03:29:39;;;;;;;5.68;4.30;;;;;;;22.19;52.58;102307.56;5032671;28;20079;-58
2021/06/06 03:32:07;;;;;;;6.10;4.38;;;;;;;22.18;52.53;102313.00;5030319;28;20535;-57
2021/06/06 03:34:33;;;;;;;5.57;4.28;;;;;;;22.18;52.50;102313.84;5032894;28;20126;-58
2021/06/06 03:36:59;;;;;;;6.75;4.65;;;;;;;22.17;52.42;102303.34;5032767;28;20469;-58
2021/06/06 03:39:28;;;;;;;6.22;4.70;;;;;;;22.13;52.46;102297.41;5031386;28;20025;-58
2021/06/06 03:41:56;;;;;;;6.05;4.10;;;;;;;22.17;52.40;102304.16;5032524;28;20057;-57
2021/06/06 03:44:22;;;;;;;6.22;4.45;;;;;;;22.16;52.48;102301.63;5031653;28;20060;-57
2021/06/06 03:46:49;;;;;;;6.78;4.28;;;;;;;22.16;52.14;102307.81;5031823;28;20045;-59
2021/06/06 03:49:17;;;;;;;5.82;4.03;;;;;;;22.17;52.36;102306.81;5032099;28;20475;-57
2021/06/06 03:51:44;;;;;;;6.88;4.38;;;;;;;22.16;52.34;102305.16;5031462;28;20032;-57
2021/06/06 03:54:11;;;;;;;7.18;4.15;;;;;;;22.16;52.42;102304.28;5031987;28;20025;-57
2021/06/06 03:56:42;;;;;;;6.95;4.25;;;;;;;22.16;52.32;102304.28;5032458;28;20026;-56
2021/06/06 03:59:08;;;;;;;5.57;4.20;;;;;;;22.15;52.37;102311.41;5031147;28;20469;-57
2021/06/06 04:01:34;;;;;;;6.18;4.50;;;;;;;22.15;52.29;102305.25;5032330;28;20021;-56
2021/06/06 04:03:59;;;;;;;5.28;3.67;;;;;;;22.13;52.34;102310.69;5032155;28;20021;-57
2021/06/06 04:06:25;;;;;;;5.75;4.13;;;;;;;22.15;52.13;102315.88;5031244;28;20040;-57
2021/06/06 04:08:51;;;;;;;5.78;4.40;;;;;;;22.14;52.04;102324.81;5032035;28;20034;-57
2021/06/06 04:11:17;;;;;;;6.15;4.47;;;;;;;22.14;51.99;102319.50;5031969;28;20029;-57
2021/06/06 04:13:44;;;;;;;6.10;4.22;;;;;;;22.14;52.25;102316.84;5031499;28;20017;-57
2021/06/06 04:16:13;;;;;;;6.50;4.13;;;;;;;22.14;52.29;102322.16;5031632;28;20402;-57
2021/06/06 04:18:39;;;;;;;6.60;4.00;;;;;;;22.11;52.26;102317.91;5032045;28;20044;-57
2021/06/06 04:21:13;;;;;;;6.45;4.22;;;;;;;22.13;52.13;102318.66;5030832;28;20021;-57
2021/06/06 04:23:39;;;;;;;7.13;4.00;;;;;;;22.12;52.10;102316.13;5031940;28;20504;-57
2021/06/06 04:26:05;;;;;;;6.45;4.10;;;;;;;22.12;51.99;102314.28;5031851;28;20068;-57
2021/06/06 04:28:34;;;;;;;5.85;4.20;;;;;;;22.12;52.03;102306.34;5031309;28;20047;-58
2021/06/06 04:31:00;;;;;;;7.00;4.40;;;;;;;22.11;52.05;102312.59;5031860;28;20030;-57
2021/06/06 04:33:25;;;;;;;6.55;4.35;;;;;;;22.09;52.16;102301.25;5031472;28;20492;-58
2021/06/06 04:35:51;;;;;;;6.10;4.13;;;;;;;22.09;51.94;102310.06;5031147;28;20040;-57
2021/06/06 04:38:23;;;;;;;5.88;3.97;;;;;;;22.11;52.03;102317.91;5031744;28;20116;-56
2021/06/06 04:40:49;;;;;;;6.47;4.22;;;;;;;22.08;51.89;102316.34;5031139;28;20033;-57
2021/06/06 04:43:15;;;;;;;5.97;4.10;;;;;;;22.08;51.97;102312.84;5031521;28;20116;-57
2021/06/06 04:45:41;;;;;;;5.40;3.78;;;;;;;22.09;51.81;102310.06;5031805;28;20055;-57
2021/06/06 04:48:22;;;;;;;6.28;4.18;;;;;;;22.09;51.93;102311.88;5030561;28;20053;-57
2021/06/06 04:50:49;;;;;;;6.13;4.20;;;;;;;22.07;51.73;102308.50;5031874;28;20034;-57
2021/06/06 04:53:14;;;;;;;5.65;3.95;;;;;;;22.08;51.86;102318.16;5031555;28;20108;-57
2021/06/06 04:55:40;;;;;;;6.30;4.20;;;;;;;22.08;51.97;102315.50;5032213;28;20128;-57
2021/06/06 04:58:05;;;;;;;6.53;3.63;;;;;;;22.04;51.98;102306.91;5035380;28;20357;-58
2021/06/06 05:00:33;;;;;;;6.28;3.80;;;;;;;22.08;51.59;102318.16;5035602;28;20116;-57
2021/06/06 05:02:58;;;;;;;5.57;3.60;;;;;;;22.07;51.84;102317.28;5034958;28;20116;-57
2021/06/06 05:05:24;;;;;;;7.00;3.97;;;;;;;21.99;51.62;102305.56;5035438;28;20503;-57
2021/06/06 05:07:55;;;;;;;6.35;4.10;;;;;;;22.06;51.68;102320.94;5035593;28;20275;-57
2021/06/06 05:10:22;;;;;;;5.53;3.38;;;;;;;22.05;51.68;102321.88;5033967;28;20465;-58
2021/06/06 05:12:48;;;;;;;5.35;3.67;;;;;;;22.03;51.80;102315.84;5035369;28;20050;-58
2021/06/06 05:15:14;;;;;;;5.50;3.88;;;;;;;22.05;51.90;102324.53;5034848;28;20377;-57
2021/06/06 05:17:40;;;;;;;5.50;3.72;;;;;;;22.05;51.64;102318.38;5034647;28;20096;-58
2021/06/06 05:20:07;;;;;;;5.68;3.70;;;;;;;22.05;51.84;102324.53;5035129;28;20183;-57
2021/06/06 05:22:32;;;;;;;6.38;3.95;;;;;;;22.04;51.70;102325.50;5034972;28;20104;-57
2021/06/06 05:24:57;;;;;;;5.90;3.67;;;;;;;22.04;51.69;102330.78;5034526;28;20021;-57
2021/06/06 05:27:23;;;;;;;6.88;3.95;;;;;;;22.05;51.87;102326.34;5034656;28;20096;-58
2021/06/06 05:29:48;;;;;;;5.65;3.80;;;;;;;22.03;51.70;102326.47;5034762;28;20135;-58
2021/06/06 05:32:14;;;;;;;4.82;3.38;;;;;;;22.03;51.63;102331.78;5034135;28;20030;-58
2021/06/06 05:34:39;;;;;;;5.70;3.40;;;;;;;22.03;51.77;102322.94;5035004;28;20055;-58
2021/06/06 05:37:05;;;;;;;5.50;3.40;;;;;;;22.04;51.61;102322.84;5033937;28;20406;-58
2021/06/06 05:39:30;;;;;;;5.72;3.60;;;;;;;22.03;51.56;102326.47;5034903;28;20400;-58
2021/06/06 05:41:56;;;;;;;6.30;3.97;;;;;;;22.03;51.66;102329.13;5034831;28;20080;-57
2021/06/06 05:44:22;;;;;;;6.07;3.80;;;;;;;22.03;51.66;102331.78;5033663;28;20025;-57
2021/06/06 05:46:47;;;;;;;5.30;3.53;;;;;;;22.03;51.71;102330.91;5034613;28;20294;-57
2021/06/06 05:49:12;;;;;;;5.85;3.90;;;;;;;22.02;51.56;102327.41;5034462;28;20026;-57
2021/06/06 05:51:38;;;;;;;5.07;3.42;;;;;;;22.00;51.72;102320.53;5033803;28;20067;-57
2021/06/06 05:54:03;;;;;;;5.30;3.25;;;;;;;22.03;51.62;102333.56;5034445;28;20021;-57
2021/06/06 05:56:28;;;;;;;5.75;3.33;;;;;;;22.03;51.52;102331.78;5034540;28;20148;-58
2021/06/06 05:58:54;;;;;;;5.10;3.58;;;;;;;22.04;51.47;102319.34;5033586;28;20053;-58
2021/06/06 06:01:20;;;;;;;5.70;3.70;;;;;;;22.02;51.52;102319.47;5034288;28;20037;-57
2021/06/06 06:03:45;;;;;;;5.72;3.60;;;;;;;22.03;51.56;102320.28;5032985;28;20298;-57
2021/06/06 06:06:10;;;;;;;4.65;3.40;;;;;;;22.02;51.56;102324.75;5033398;28;20045;-58
2021/06/06 06:08:39;;;;;;;4.95;2.97;;;;;;;22.02;51.45;102327.41;5033422;28;20099;-57
2021/06/06 06:11:07;;;;;;;4.50;3.28;;;;;;;22.02;51.50;102329.25;5033818;28;20116;-57
2021/06/06 06:13:33;;;;;;;5.38;3.45;;;;;;;22.02;51.47;102327.41;5033335;28;20128;-57
2021/06/06 06:16:06;;;;;;;6.22;3.70;;;;;;;22.00;51.34;102317.88;5034159;28;20408;-57
2021/06/06 06:18:32;;;;;;;5.28;3.45;;;;;;;22.01;51.38;102328.38;5034219;28;20025;-57
2021/06/06 06:20:59;;;;;;;5.22;3.65;;;;;;;22.02;51.65;102331.91;5033416;28;20101;-57
2021/06/06 06:23:25;;;;;;;5.40;3.50;;;;;;;22.01;51.27;102335.50;5033670;28;20029;-57
2021/06/06 06:25:51;;;;;;;5.63;3.42;;;;;;;22.01;51.44;102332.84;5033835;28;20045;-58
2021/06/06 06:28:17;;;;;;;4.72;3.13;;;;;;;22.02;51.53;102332.72;5032811;28;20389;-57
2021/06/06 06:30:43;;;;;;;4.65;3.10;;;;;;;22.01;51.24;102331.03;5033906;28;20094;-56
2021/06/06 06:33:09;;;;;;;8.05;3.20;;;;;;;22.00;51.53;102328.47;5033723;28;20026;-56
2021/06/06 06:35:35;;;;;;;6.63;3.20;;;;;;;21.99;51.42;102329.47;5033287;28;20026;-56
2021/06/06 06:38:05;;;;;;;4.80;3.38;;;;;;;21.96;51.57;102330.53;5033708;28;20079;-58
2021/06/06 06:40:31;;;;;;;4.90;3.15;;;;;;;21.96;51.25;102324.38;5032649;28;20416;-57
2021/06/06 06:42:57;;;;;;;6.32;3.47;;;;;;;21.98;51.48;102322.44;5033597;28;20048;-57
2021/06/06 06:45:29;;;;;;;5.25;3.33;;;;;;;21.98;51.63;102325.94;5033321;28;20018;-58
2021/06/06 06:47:59;;;;;;;4.90;3.50;;;;;;;21.98;51.45;102319.78;5032895;28;20405;-57
2021/06/06 06:50:25;;;;;;;5.45;3.50;;;;;;;21.99;51.83;102332.13;5032965;28;20413;-57
2021/06/06 06:52:53;;;;;;;5.20;3.47;;;;;;;21.98;51.88;102331.25;5033297;28;20017;-59
2021/06/06 06:55:23;;;;;;;5.97;3.45;;;;;;;21.98;51.63;102331.25;5035170;28;20352;-60
2021/06/06 06:57:48;;;;;;;5.88;3.30;;;;;;;21.95;51.89;102339.44;5033895;28;20022;-57
2021/06/06 07:00:21;;;;;;;5.88;3.13;;;;;;;21.96;51.82;102337.66;5033396;28;20629;-60
2021/06/06 07:02:46;;;;;;;5.25;3.33;;;;;;;21.96;51.91;102345.63;5033148;28;20111;-58
2021/06/06 07:05:12;;;;;;;4.95;3.40;;;;;;;21.96;51.88;102342.97;5032977;28;20049;-57
2021/06/06 07:07:38;;;;;;;6.95;3.30;;;;;;;21.97;51.75;102348.16;5033168;28;20018;-59
2021/06/06 07:10:04;;;;;;;6.03;3.10;;;;;;;21.98;51.79;102349.00;5033731;28;20176;-60
2021/06/06 07:12:30;;;;;;;4.72;2.83;;;;;;;22.00;51.86;102350.59;5035161;28;20033;-58
2021/06/06 07:14:58;;;;;;;5.63;3.08;;;;;;;22.00;51.90;102350.59;5033620;28;20117;-59
2021/06/06 07:17:23;;;;;;;6.70;3.10;;;;;;;22.05;51.91;102350.25;5033355;28;20018;-59
2021/06/06 07:19:49;;;;;;;5.20;2.63;;;;;;;22.06;51.84;102350.13;5032722;28;20029;-57
2021/06/06 07:22:14;;;;;;;6.80;2.90;;;;;;;22.07;51.95;102351.81;5034134;28;20112;-59
2021/06/06 07:24:39;;;;;;;5.15;2.83;;;;;;;22.10;52.25;102351.59;5033078;28;20302;-58
2021/06/06 07:27:06;;;;;;;5.57;3.15;;;;;;;22.13;51.94;102352.31;5033055;28;20441;-59
2021/06/06 07:29:33;;;;;;;7.00;2.85;;;;;;;22.13;51.87;102350.53;5034607;28;20026;-59
2021/06/06 07:31:59;;;;;;;4.35;2.90;;;;;;;22.15;51.82;102342.44;5035462;28;20075;-60
2021/06/06 07:34:26;;;;;;;7.03;2.90;;;;;;;22.15;51.75;102345.94;5033623;28;20424;-59
2021/06/06 07:36:54;;;;;;;4.88;2.60;;;;;;;22.15;51.89;102345.09;5032337;28;20330;-58
2021/06/06 07:39:20;;;;;;;4.80;2.90;;;;;;;22.15;51.96;102347.75;5032836;28;20072;-61
2021/06/06 07:41:46;;;;;;;4.63;2.70;;;;;;;22.17;51.93;102353.78;5033896;28;20029;-60
2021/06/06 07:44:11;;;;;;;5.05;2.70;;;;;;;22.16;51.91;102352.06;5034063;28;20028;-60
2021/06/06 07:46:37;;;;;;;4.47;2.70;;;;;;;22.13;52.08;102341.69;5035416;28;20026;-60
2021/06/06 07:49:03;;;;;;;5.25;2.83;;;;;;;22.17;52.10;102361.75;5034862;28;20037;-59
2021/06/06 07:51:31;;;;;;;6.07;2.80;;;;;;;22.16;52.18;102354.72;5033667;28;20124;-61
2021/06/06 07:54:00;;;;;;;4.07;2.40;;;;;;;22.19;51.99;102357.16;5034259;28;20025;-59
2021/06/06 07:56:25;;;;;;;4.80;2.65;;;;;;;22.18;51.99;102351.00;5033162;28;20296;-61
2021/06/06 07:58:51;;;;;;;5.18;2.33;;;;;;;22.20;52.09;102351.72;5031539;28;20512;-59
2021/06/06 08:01:20;;;;;;;5.65;2.92;;;;;;;22.21;51.99;102357.91;5034228;28;20036;-59
2021/06/06 08:03:51;;;;;;;4.43;2.30;;;;;;;22.22;52.03;102356.94;5033206;28;20095;-60
2021/06/06 08:06:17;;;;;;;7.35;2.65;;;;;;;22.22;52.04;102352.47;5033571;28;20116;-60
2021/06/06 08:08:43;;;;;;;3.92;2.38;;;;;;;22.23;51.97;102356.81;5033350;28;20045;-60
2021/06/06 08:11:10;;;;;;;4.38;2.50;;;;;;;22.25;52.13;102348.72;5032765;28;20120;-57
2021/06/06 08:13:36;;;;;;;7.30;2.70;;;;;;;22.25;52.11;102346.06;5032766;28;20485;-60
2021/06/06 08:16:03;;;;;;;5.35;2.45;;;;;;;22.26;52.10;102350.44;5033136;28;20121;-58
2021/06/06 08:18:32;;;;;;;4.65;2.53;;;;;;;22.27;52.04;102352.97;5035787;28;20021;-60
2021/06/06 08:21:24;;;;;;;4.70;2.60;;;;;;;22.28;52.10;102349.34;5032977;28;20022;-59
2021/06/06 08:23:49;;;;;;;5.32;2.40;;;;;;;22.31;52.11;102347.47;5031346;28;20037;-59
2021/06/06 08:26:17;;;;;;;4.37;2.40;;;;;;;22.32;52.08;102351.78;5031874;28;20032;-57
2021/06/06 08:28:47;;;;;;;6.15;2.95;;;;;;;22.31;52.00;102347.47;5032184;28;20600;-57
2021/06/06 08:31:16;;;;;;;4.65;2.35;;;;;;;22.33;51.90;102353.50;5031789;28;20111;-59
2021/06/06 08:33:42;;;;;;;4.53;2.40;;;;;;;22.34;51.77;102355.22;5031791;28;20417;-58
2021/06/06 08:36:29;;;;;;;4.68;2.35;;;;;;;22.35;51.96;102346.25;5034665;28;20079;-60
2021/06/06 08:38:56;;;;;;;4.20;2.38;;;;;;;22.36;51.92;102345.31;5033124;28;20134;-60
2021/06/06 08:41:26;;;;;;;4.22;2.20;;;;;;;22.36;51.88;102354.09;5032347;28;20029;-60
2021/06/06 08:44:13;;;;;;;5.43;2.55;;;;;;;22.36;51.89;102356.75;5032850;28;20032;-59
2021/06/06 08:46:51;;;;;;;5.85;2.20;;;;;;;22.35;51.99;102355.09;5032857;28;20022;-59
2021/06/06 08:49:17;;;;;;;5.07;2.47;;;;;;;22.03;51.82;102302.56;5031377;28;20025;-60
2021/06/06 08:51:49;;;;;;;4.70;2.50;;;;;;;22.35;51.80;102354.22;5032484;28;20049;-60
2021/06/06 08:54:59;;;;;;;3.95;2.35;;;;;;;22.34;51.82;102356.03;5031655;28;20028;-57
2021/06/06 08:57:31;;;;;;;3.78;2.10;;;;;;;22.32;51.87;102357.09;5031860;28;20033;-57
2021/06/06 09:00:00;;;;;;;3.78;2.17;;;;;;;22.32;51.78;102352.66;5032354;28;20397;-58
2021/06/06 09:02:29;;;;;;;5.88;2.25;;;;;;;22.33;51.88;102357.00;5031181;28;20030;-59
2021/06/06 09:04:55;;;;;;;4.97;2.25;;;;;;;22.31;51.75;102353.63;5032366;28;20018;-56
2021/06/06 09:07:33;;;;;;;4.85;2.60;;;;;;;22.33;51.67;102353.50;5033085;28;20017;-58
2021/06/06 09:10:07;;;;;;;3.80;2.10;;;;;;;22.34;51.77;102357.88;5030714;28;20057;-59
2021/06/06 09:12:32;;;;;;;5.82;2.47;;;;;;;22.34;51.68;102356.03;5031855;28;20347;-58
2021/06/06 09:14:57;;;;;;;4.10;2.13;;;;;;;22.35;51.46;102363.06;5032062;28;20032;-58
2021/06/06 09:17:42;;;;;;;3.90;2.10;;;;;;;22.35;51.65;102359.53;5031118;28;20521;-59
2021/06/06 09:20:22;;;;;;;4.00;2.10;;;;;;;22.38;51.49;102356.66;5031823;28;20032;-58
2021/06/06 09:22:50;;;;;;;5.05;2.10;;;;;;;22.39;51.63;102366.31;5031305;28;20033;-58
2021/06/06 09:25:17;;;;;;;5.47;2.03;;;;;;;22.40;51.65;102360.91;5031317;28;20050;-57
2021/06/06 09:27:45;;;;;;;3.83;2.00;;;;;;;22.43;51.59;102365.09;5031707;28;20034;-58
2021/06/06 09:30:17;;;;;;;4.53;2.22;;;;;;;22.45;51.69;102349.91;5030821;28;20057;-58
2021/06/06 09:32:44;;;;;;;4.22;1.95;;;;;;;22.48;51.67;102360.31;5031755;28;20026;-58
2021/06/06 09:35:32;;;;;;;4.47;2.03;;;;;;;22.50;51.79;102355.72;5032386;28;20021;-58
2021/06/06 09:38:09;;;;;;;4.80;1.98;;;;;;;22.50;51.66;102350.41;5031612;28;20025;-56
2021/06/06 09:40:39;;;;;;;4.68;2.00;;;;;;;22.55;51.75;102356.22;5032597;28;20112;-57
2021/06/06 09:43:06;;;;;;;4.90;2.33;;;;;;;22.57;51.85;102356.09;5033304;28;20484;-57
2021/06/06 09:45:35;;;;;;;4.80;2.10;;;;;;;22.58;51.92;102358.63;5034603;28;20192;-59
2021/06/06 09:48:06;;;;;;;3.47;1.90;;;;;;;22.59;51.95;102354.19;5035393;28;20022;-56
2021/06/06 09:50:38;;;;;;;4.18;2.10;;;;;;;22.60;51.94;102362.00;5034619;28;20025;-58
2021/06/06 09:53:13;;;;;;;3.90;2.00;;;;;;;22.59;52.08;102359.50;5035303;28;20036;-57
2021/06/06 09:55:39;;;;;;;4.20;1.85;;;;;;;22.61;51.79;102358.41;5035065;28;20083;-57
2021/06/06 09:58:22;;;;;;;4.47;2.22;;;;;;;22.63;51.87;102367.09;5034452;28;20402;-56
2021/06/06 10:00:52;;;;;;;4.30;2.10;;;;;;;22.62;51.79;102369.88;5035003;28;20052;-57
2021/06/06 10:03:26;;;;;;;3.78;1.98;;;;;;;22.63;52.11;102367.09;5034837;28;20017;-59
2021/06/06 10:06:09;;;;;;;4.93;2.28;;;;;;;22.63;51.84;102364.44;5035514;28;20052;-57
2021/06/06 10:08:40;;;;;;;5.25;2.30;;;;;;;22.64;51.96;102360.81;5034718;28;20022;-59
2021/06/06 10:11:08;;;;;;;3.85;2.10;;;;;;;22.63;51.85;102356.47;5034222;28;20033;-58
2021/06/06 10:13:36;;;;;;;4.15;2.10;;;;;;;22.63;51.67;102356.47;5033980;28;20026;-58
2021/06/06 10:16:08;;;;;;;4.15;2.22;;;;;;;22.65;51.85;102353.69;5033545;28;20018;-57
2021/06/06 10:18:46;;;;;;;4.95;2.15;;;;;;;22.67;51.87;102356.22;5034454;28;20022;-57
2021/06/06 10:21:19;;;;;;;4.88;2.20;;;;;;;22.70;51.85;102358.66;5034402;28;20026;-57
2021/06/06 10:23:58;;;;;;;3.97;2.05;;;;;;;22.62;52.18;102341.50;5034622;28;20025;-59
2021/06/06 10:26:35;;;;;;;5.03;1.90;;;;;;;22.71;52.13;102358.53;5033478;28;20029;-57
2021/06/06 10:29:22;;;;;;;5.30;2.15;;;;;;;22.72;52.01;102360.22;5034972;28;20029;-58
2021/06/06 10:31:50;;;;;;;5.32;2.10;;;;;;;22.74;52.38;102357.47;5035059;28;20539;-61
2021/06/06 10:34:36;;;;;;;4.93;1.92;;;;;;;22.76;52.39;102361.66;5035157;28;20152;-58
2021/06/06 10:37:02;;;;;;;3.90;2.03;;;;;;;22.74;52.32;102354.81;5034331;28;20025;-56
2021/06/06 10:39:32;;;;;;;4.57;2.03;;;;;;;22.75;52.02;102353.84;5033726;28;20018;-56
2021/06/06 10:42:16;;;;;;;4.35;2.20;;;;;;;22.76;52.55;102356.34;5034379;28;20087;-58
2021/06/06 10:44:47;;;;;;;4.78;2.10;;;;;;;22.76;52.31;102355.53;5034328;28;20028;-58
2021/06/06 10:47:35;;;;;;;5.68;2.25;;;;;;;22.76;52.48;102363.50;5032860;28;20021;-58
2021/06/06 10:50:30;;;;;;;4.22;2.20;;;;;;;22.75;52.63;102354.69;5033899;28;20028;-58
2021/06/06 10:53:25;;;;;;;4.80;1.95;;;;;;;22.75;52.74;102354.69;5033784;28;20021;-58
2021/06/06 10:56:09;;;;;;;3.80;2.10;;;;;;;22.78;52.37;102356.25;5033527;28;20040;-59
2021/06/06 10:59:09;;;;;;;4.80;1.90;;;;;;;22.81;52.50;102356.00;5035091;28;20029;-59
2021/06/06 11:01:44;;;;;;;3.95;1.90;;;;;;;22.80;52.32;102352.50;5034250;28;20029;-60
2021/06/06 11:04:15;;;;;;;5.68;2.00;;;;;;;22.78;52.14;102357.09;5033905;28;20021;-62
2021/06/06 11:06:47;;;;;;;5.97;1.92;;;;;;;22.75;52.11;102348.53;5034408;28;20026;-58
2021/06/06 11:09:33;;;;;;;4.05;1.77;;;;;;;22.77;52.44;102351.91;5032475;28;20045;-60
2021/06/06 11:12:33;;;;;;;5.15;2.00;;;;;;;22.77;52.08;102346.59;5036610;28;20040;-60
2021/06/06 11:15:02;;;;;;;6.25;1.92;;;;;;;22.78;52.23;102342.94;5034698;28;20515;-59
2021/06/06 11:17:36;;;;;;;6.15;1.95;;;;;;;22.70;52.08;102327.63;5037049;28;20021;-62
2021/06/06 11:20:17;;;;;;;6.57;1.90;;;;;;;22.77;52.13;102335.97;5035162;28;20028;-58
2021/06/06 11:22:48;;;;;;;5.20;2.15;;;;;;;22.78;51.96;102335.84;5035307;28;20044;-59
2021/06/06 11:25:43;;;;;;;4.03;1.90;;;;;;;22.79;51.89;102336.69;5034161;28;20092;-57
2021/06/06 11:28:30;;;;;;;6.10;2.30;;;;;;;22.76;52.32;102335.09;5032900;28;20040;-58
2021/06/06 11:30:56;;;;;;;7.00;2.38;;;;;;;22.77;52.67;102339.47;5049154;28;20025;-58
2021/06/06 11:33:42;;;;;;;7.03;2.40;;;;;;;22.79;53.79;102336.69;5053024;28;20025;-59
2021/06/06 11:36:08;;;;;;;4.78;2.45;;;;;;;22.81;54.10;102329.44;5052706;28;20108;-60
2021/06/06 11:38:43;;;;;;;5.13;2.00;;;;;;;22.82;54.25;102337.28;5053122;28;20164;-58
2021/06/06 11:41:12;;;;;;;6.28;2.72;;;;;;;22.82;54.16;102339.94;5052533;28;20490;-58
2021/06/06 11:43:52;;;;;;;5.75;2.92;;;;;;;22.83;53.90;102344.28;5052329;28;20396;-58